sensor_id;sensor_type;location;lat;lon;timestamp;pressure;altitude;pressure_sealevel;temperature;humidity
77017;BME280;65949;53.132;17.930;2023-04-01T00:02:23;99097.09;;;9.82;82.37
77017;BME280;65949;53.132;17.930;2023-04-01T00:04:50;99095.34;;;9.81;82.43
77017;BME280;65949;53.132;17.930;2023-04-01T00:07:16;99093.42;;;9.80;82.43
77017;BME280;65949;53.132;17.930;2023-04-01T00:09:43;99095.04;;;9.80;82.33
77017;BME280;65949;53.132;17.930;2023-04-01T00:12:09;99094.21;;;9.80;82.41
77017;BME280;65949;53.132;17.930;2023-04-01T00:14:37;99094.11;;;9.80;82.45
77017;BME280;65949;53.132;17.930;2023-04-01T00:17:03;99092.73;;;9.78;82.51
77017;BME280;65949;53.132;17.930;2023-04-01T00:19:30;99090.90;;;9.75;82.65
77017;BME280;65949;53.132;17.930;2023-04-01T00:21:58;99093.02;;;9.74;82.68
77017;BME280;65949;53.132;17.930;2023-04-01T00:24:25;99091.08;;;9.71;82.86
77017;BME280;65949;53.132;17.930;2023-04-01T00:26:51;99089.20;;;9.68;82.87
77017;BME280;65949;53.132;17.930;2023-04-01T00:29:18;99092.50;;;9.66;82.98
77017;BME280;65949;53.132;17.930;2023-04-01T00:31:45;99091.07;;;9.64;83.09
77017;BME280;65949;53.132;17.930;2023-04-01T00:34:12;99090.33;;;9.62;83.20
77017;BME280;65949;53.132;17.930;2023-04-01T00:36:38;99092.36;;;9.59;83.34
77017;BME280;65949;53.132;17.930;2023-04-01T00:39:05;99093.87;;;9.55;83.50
77017;BME280;65949;53.132;17.930;2023-04-01T00:41:32;99090.90;;;9.52;83.67
77017;BME280;65949;53.132;17.930;2023-04-01T00:44:26;99089.56;;;9.48;83.85
77017;BME280;65949;53.132;17.930;2023-04-01T00:46:53;99092.73;;;9.44;84.18
77017;BME280;65949;53.132;17.930;2023-04-01T00:49:23;99093.72;;;9.40;84.11
77017;BME280;65949;53.132;17.930;2023-04-01T00:51:53;99090.48;;;9.38;84.39
77017;BME280;65949;53.132;17.930;2023-04-01T00:54:22;99090.14;;;9.36;84.16
77017;BME280;65949;53.132;17.930;2023-04-01T00:59:25;99091.71;;;9.39;84.18
77017;BME280;65949;53.132;17.930;2023-04-01T01:01:53;99087.61;;;9.41;84.22
77017;BME280;65949;53.132;17.930;2023-04-01T01:06:55;99086.81;;;9.47;84.02
77017;BME280;65949;53.132;17.930;2023-04-01T01:12:21;99079.95;;;9.51;83.99
77017;BME280;65949;53.132;17.930;2023-04-01T01:31:29;99087.78;;;9.52;84.23
77017;BME280;65949;53.132;17.930;2023-04-01T01:36:53;99086.73;;;9.45;84.35
77017;BME280;65949;53.132;17.930;2023-04-01T01:39:26;99081.98;;;9.43;84.54
77017;BME280;65949;53.132;17.930;2023-04-01T01:42:02;99084.66;;;9.37;85.14
77017;BME280;65949;53.132;17.930;2023-04-01T01:44:32;99084.19;;;9.30;85.31
77017;BME280;65949;53.132;17.930;2023-04-01T01:47:00;99083.14;;;9.23;85.21
77017;BME280;65949;53.132;17.930;2023-04-01T01:49:28;99081.28;;;9.19;85.39
77017;BME280;65949;53.132;17.930;2023-04-01T01:51:58;99080.23;;;9.12;85.57
77017;BME280;65949;53.132;17.930;2023-04-01T01:54:25;99080.16;;;9.09;85.64
77017;BME280;65949;53.132;17.930;2023-04-01T01:57:04;99078.63;;;9.03;85.62
77017;BME280;65949;53.132;17.930;2023-04-01T01:59:35;99079.52;;;8.98;85.95
77017;BME280;65949;53.132;17.930;2023-04-01T02:02:05;99078.34;;;8.94;85.71
77017;BME280;65949;53.132;17.930;2023-04-01T02:04:37;99082.98;;;8.92;85.52
77017;BME280;65949;53.132;17.930;2023-04-01T02:07:10;99080.91;;;8.91;85.70
77017;BME280;65949;53.132;17.930;2023-04-01T02:09:39;99083.48;;;8.90;85.73
77017;BME280;65949;53.132;17.930;2023-04-01T02:12:08;99087.23;;;8.88;85.79
77017;BME280;65949;53.132;17.930;2023-04-01T02:14:45;99082.49;;;8.84;86.23
77017;BME280;65949;53.132;17.930;2023-04-01T02:17:18;99084.11;;;8.80;86.37
77017;BME280;65949;53.132;17.930;2023-04-01T02:20:05;99082.84;;;8.81;86.25
77017;BME280;65949;53.132;17.930;2023-04-01T02:22:37;99083.34;;;8.83;85.87
77017;BME280;65949;53.132;17.930;2023-04-01T02:25:11;99083.05;;;8.87;85.88
77017;BME280;65949;53.132;17.930;2023-04-01T02:27:40;99084.59;;;8.87;85.57
77017;BME280;65949;53.132;17.930;2023-04-01T02:30:08;99085.52;;;8.88;85.63
77017;BME280;65949;53.132;17.930;2023-04-01T02:32:37;99084.17;;;8.88;85.52
77017;BME280;65949;53.132;17.930;2023-04-01T02:35:08;99086.10;;;8.91;85.74
77017;BME280;65949;53.132;17.930;2023-04-01T02:37:38;99089.09;;;8.93;85.50
77017;BME280;65949;53.132;17.930;2023-04-01T02:40:06;99093.61;;;8.93;85.43
77017;BME280;65949;53.132;17.930;2023-04-01T02:42:34;99094.27;;;8.96;85.41
77017;BME280;65949;53.132;17.930;2023-04-01T02:45:01;99096.04;;;8.95;85.42
77017;BME280;65949;53.132;17.930;2023-04-01T02:47:28;99096.98;;;8.94;85.38
77017;BME280;65949;53.132;17.930;2023-04-01T02:49:55;99098.42;;;8.90;85.38
77017;BME280;65949;53.132;17.930;2023-04-01T02:52:26;99101.17;;;8.87;85.42
77017;BME280;65949;53.132;17.930;2023-04-01T02:54:53;99103.67;;;8.87;85.33
77017;BME280;65949;53.132;17.930;2023-04-01T02:57:20;99103.42;;;8.86;85.34
77017;BME280;65949;53.132;17.930;2023-04-01T02:59:47;99110.23;;;8.85;85.64
77017;BME280;65949;53.132;17.930;2023-04-01T03:02:14;99111.14;;;8.84;85.50
77017;BME280;65949;53.132;17.930;2023-04-01T03:04:42;99113.39;;;8.83;85.43
77017;BME280;65949;53.132;17.930;2023-04-01T03:07:09;99114.86;;;8.81;85.47
77017;BME280;65949;53.132;17.930;2023-04-01T03:09:37;99114.89;;;8.79;85.44
77017;BME280;65949;53.132;17.930;2023-04-01T03:12:05;99115.72;;;8.79;85.40
77017;BME280;65949;53.132;17.930;2023-04-01T03:14:33;99116.98;;;8.81;85.45
77017;BME280;65949;53.132;17.930;2023-04-01T03:16:59;99118.91;;;8.81;85.08
77017;BME280;65949;53.132;17.930;2023-04-01T03:19:26;99118.66;;;8.83;85.25
77017;BME280;65949;53.132;17.930;2023-04-01T03:21:53;99119.38;;;8.86;85.29
77017;BME280;65949;53.132;17.930;2023-04-01T03:24:20;99125.77;;;8.87;85.00
77017;BME280;65949;53.132;17.930;2023-04-01T03:26:47;99120.65;;;8.88;85.06
77017;BME280;65949;53.132;17.930;2023-04-01T03:29:15;99121.98;;;8.89;85.18
77017;BME280;65949;53.132;17.930;2023-04-01T03:31:42;99126.23;;;8.86;84.75
77017;BME280;65949;53.132;17.930;2023-04-01T03:34:09;99128.72;;;8.82;85.06
77017;BME280;65949;53.132;17.930;2023-04-01T03:36:36;99129.27;;;8.79;84.86
77017;BME280;65949;53.132;17.930;2023-04-01T03:39:03;99132.52;;;8.77;84.91
77017;BME280;65949;53.132;17.930;2023-04-01T03:41:36;99136.42;;;8.77;84.99
77017;BME280;65949;53.132;17.930;2023-04-01T03:44:04;99137.88;;;8.76;84.82
77017;BME280;65949;53.132;17.930;2023-04-01T03:46:31;99136.65;;;8.74;84.85
77017;BME280;65949;53.132;17.930;2023-04-01T03:48:57;99136.48;;;8.72;84.87
77017;BME280;65949;53.132;17.930;2023-04-01T03:51:24;99141.05;;;8.70;85.20
77017;BME280;65949;53.132;17.930;2023-04-01T03:53:51;99139.98;;;8.67;84.80
77017;BME280;65949;53.132;17.930;2023-04-01T03:56:17;99146.52;;;8.63;84.98
77017;BME280;65949;53.132;17.930;2023-04-01T03:58:44;99150.54;;;8.57;85.15
77017;BME280;65949;53.132;17.930;2023-04-01T04:01:17;99154.34;;;8.52;85.01
77017;BME280;65949;53.132;17.930;2023-04-01T04:03:45;99152.45;;;8.47;84.95
77017;BME280;65949;53.132;17.930;2023-04-01T04:06:13;99158.20;;;8.45;84.91
77017;BME280;65949;53.132;17.930;2023-04-01T04:08:40;99160.25;;;8.41;85.19
77017;BME280;65949;53.132;17.930;2023-04-01T04:11:07;99164.86;;;8.35;85.15
77017;BME280;65949;53.132;17.930;2023-04-01T04:13:34;99167.09;;;8.31;85.17
77017;BME280;65949;53.132;17.930;2023-04-01T04:16:03;99169.25;;;8.26;85.32
77017;BME280;65949;53.132;17.930;2023-04-01T04:18:30;99174.69;;;8.22;85.47
77017;BME280;65949;53.132;17.930;2023-04-01T04:20:57;99176.66;;;8.19;85.63
77017;BME280;65949;53.132;17.930;2023-04-01T04:23:25;99178.22;;;8.17;85.90
77017;BME280;65949;53.132;17.930;2023-04-01T04:26:00;99180.99;;;8.16;85.51
77017;BME280;65949;53.132;17.930;2023-04-01T04:28:28;99177.71;;;8.09;86.11
77017;BME280;65949;53.132;17.930;2023-04-01T04:30:56;99179.98;;;8.05;86.31
77017;BME280;65949;53.132;17.930;2023-04-01T04:33:24;99184.92;;;8.04;86.04
77017;BME280;65949;53.132;17.930;2023-04-01T04:35:53;99191.46;;;8.03;85.92
77017;BME280;65949;53.132;17.930;2023-04-01T04:38:22;99190.27;;;8.02;86.08
77017;BME280;65949;53.132;17.930;2023-04-01T04:40:48;99196.03;;;8.02;86.02
77017;BME280;65949;53.132;17.930;2023-04-01T04:43:17;99198.10;;;8.03;85.76
77017;BME280;65949;53.132;17.930;2023-04-01T04:45:44;99197.66;;;8.00;85.86
77017;BME280;65949;53.132;17.930;2023-04-01T04:48:13;99200.34;;;7.95;85.35
77017;BME280;65949;53.132;17.930;2023-04-01T04:50:42;99200.22;;;7.90;85.50
77017;BME280;65949;53.132;17.930;2023-04-01T04:53:10;99203.30;;;7.86;85.85
77017;BME280;65949;53.132;17.930;2023-04-01T04:55:37;99207.32;;;7.84;85.48
77017;BME280;65949;53.132;17.930;2023-04-01T04:58:23;99209.81;;;7.82;85.81
77017;BME280;65949;53.132;17.930;2023-04-01T05:00:50;99211.03;;;7.78;85.83
77017;BME280;65949;53.132;17.930;2023-04-01T05:03:24;99211.55;;;7.75;85.58
77017;BME280;65949;53.132;17.930;2023-04-01T05:05:53;99215.58;;;7.73;85.70
77017;BME280;65949;53.132;17.930;2023-04-01T05:08:20;99222.52;;;7.71;85.64
77017;BME280;65949;53.132;17.930;2023-04-01T05:10:47;99217.92;;;7.69;85.83
77017;BME280;65949;53.132;17.930;2023-04-01T05:13:13;99227.71;;;7.63;85.78
77017;BME280;65949;53.132;17.930;2023-04-01T05:15:40;99228.86;;;7.59;85.61
77017;BME280;65949;53.132;17.930;2023-04-01T05:18:07;99227.45;;;7.52;85.79
77017;BME280;65949;53.132;17.930;2023-04-01T05:20:34;99239.91;;;7.46;85.78
77017;BME280;65949;53.132;17.930;2023-04-01T05:23:01;99238.73;;;7.43;86.15
77017;BME280;65949;53.132;17.930;2023-04-01T05:25:29;99239.63;;;7.42;86.00
77017;BME280;65949;53.132;17.930;2023-04-01T05:27:56;99242.05;;;7.41;86.20
77017;BME280;65949;53.132;17.930;2023-04-01T05:30:23;99246.83;;;7.40;85.97
77017;BME280;65949;53.132;17.930;2023-04-01T05:33:00;99247.97;;;7.41;85.84
77017;BME280;65949;53.132;17.930;2023-04-01T05:35:27;99250.81;;;7.43;85.88
77017;BME280;65949;53.132;17.930;2023-04-01T05:37:54;99251.80;;;7.44;85.47
77017;BME280;65949;53.132;17.930;2023-04-01T05:40:21;99248.06;;;7.47;85.23
77017;BME280;65949;53.132;17.930;2023-04-01T05:42:47;99246.93;;;7.44;85.21
77017;BME280;65949;53.132;17.930;2023-04-01T05:45:15;99249.75;;;7.38;84.59
77017;BME280;65949;53.132;17.930;2023-04-01T05:48:05;99255.05;;;7.33;85.28
77017;BME280;65949;53.132;17.930;2023-04-01T05:50:36;99255.71;;;7.31;85.03
77017;BME280;65949;53.132;17.930;2023-04-01T05:53:03;99261.69;;;7.28;84.95
77017;BME280;65949;53.132;17.930;2023-04-01T05:55:29;99266.82;;;7.30;85.24
77017;BME280;65949;53.132;17.930;2023-04-01T05:57:56;99272.30;;;7.33;84.85
77017;BME280;65949;53.132;17.930;2023-04-01T06:00:22;99271.52;;;7.36;85.05
77017;BME280;65949;53.132;17.930;2023-04-01T06:02:50;99273.28;;;7.38;85.20
77017;BME280;65949;53.132;17.930;2023-04-01T06:05:21;99275.56;;;7.35;84.52
77017;BME280;65949;53.132;17.930;2023-04-01T06:07:51;99280.40;;;7.31;84.29
77017;BME280;65949;53.132;17.930;2023-04-01T06:10:32;99282.73;;;7.28;83.99
77017;BME280;65949;53.132;17.930;2023-04-01T06:27:07;99300.96;;;7.14;83.74
77017;BME280;65949;53.132;17.930;2023-04-01T06:42:38;99315.01;;;7.36;82.95
77017;BME280;65949;53.132;17.930;2023-04-01T06:45:41;99315.75;;;7.35;83.00
77017;BME280;65949;53.132;17.930;2023-04-01T06:52:23;99319.32;;;7.35;82.14
77017;BME280;65949;53.132;17.930;2023-04-01T06:55:41;99320.68;;;7.29;82.07
77017;BME280;65949;53.132;17.930;2023-04-01T06:58:25;99324.31;;;7.24;82.68
77017;BME280;65949;53.132;17.930;2023-04-01T07:00:57;99324.73;;;7.24;82.88
77017;BME280;65949;53.132;17.930;2023-04-01T07:03:34;99330.27;;;7.25;83.02
77017;BME280;65949;53.132;17.930;2023-04-01T07:06:08;99333.75;;;7.21;82.47
77017;BME280;65949;53.132;17.930;2023-04-01T07:08:41;99336.64;;;7.23;82.57
77017;BME280;65949;53.132;17.930;2023-04-01T07:11:15;99336.70;;;7.24;82.48
77017;BME280;65949;53.132;17.930;2023-04-01T07:17:06;99341.93;;;7.28;82.27
77017;BME280;65949;53.132;17.930;2023-04-01T07:19:57;99349.53;;;7.38;82.75
77017;BME280;65949;53.132;17.930;2023-04-01T07:22:32;99351.13;;;7.46;82.78
77017;BME280;65949;53.132;17.930;2023-04-01T07:25:38;99353.13;;;7.56;82.54
77017;BME280;65949;53.132;17.930;2023-04-01T07:28:35;99349.84;;;7.60;81.93
77017;BME280;65949;53.132;17.930;2023-04-01T07:50:25;99375.93;;;7.54;81.51
77017;BME280;65949;53.132;17.930;2023-04-01T07:55:49;99388.33;;;7.55;81.11
77017;BME280;65949;53.132;17.930;2023-04-01T08:07:15;99405.24;;;7.54;81.66
77017;BME280;65949;53.132;17.930;2023-04-01T08:10:22;99405.39;;;7.58;81.06
77017;BME280;65949;53.132;17.930;2023-04-01T08:16:24;99414.01;;;7.52;80.42
77017;BME280;65949;53.132;17.930;2023-04-01T08:19:09;99418.94;;;7.45;80.44
77017;BME280;65949;53.132;17.930;2023-04-01T08:21:45;99423.83;;;7.39;80.72
77017;BME280;65949;53.132;17.930;2023-04-01T08:24:42;99432.02;;;7.35;80.78
77017;BME280;65949;53.132;17.930;2023-04-01T08:27:18;99432.63;;;7.40;80.74
77017;BME280;65949;53.132;17.930;2023-04-01T08:30:17;99436.63;;;7.35;80.68
77017;BME280;65949;53.132;17.930;2023-04-01T08:32:50;99439.12;;;7.31;80.56
77017;BME280;65949;53.132;17.930;2023-04-01T08:35:37;99444.35;;;7.35;81.33
77017;BME280;65949;53.132;17.930;2023-04-01T08:38:57;99444.70;;;7.44;80.93
77017;BME280;65949;53.132;17.930;2023-04-01T08:41:18;99445.36;;;7.57;81.10
77017;BME280;65949;53.132;17.930;2023-04-01T08:44:13;99448.09;;;7.76;80.32
77017;BME280;65949;53.132;17.930;2023-04-01T08:47:06;99446.95;;;7.93;79.35
77017;BME280;65949;53.132;17.930;2023-04-01T08:49:46;99454.28;;;8.10;78.99
77017;BME280;65949;53.132;17.930;2023-04-01T08:52:34;99456.73;;;8.29;77.83
77017;BME280;65949;53.132;17.930;2023-04-01T08:55:20;99453.16;;;8.30;77.55
77017;BME280;65949;53.132;17.930;2023-04-01T09:06:47;99468.34;;;8.22;78.65
77017;BME280;65949;53.132;17.930;2023-04-01T09:09:32;99473.09;;;8.30;78.02
77017;BME280;65949;53.132;17.930;2023-04-01T09:15:34;99478.09;;;8.37;77.77
77017;BME280;65949;53.132;17.930;2023-04-01T09:23:54;99481.20;;;8.21;77.87
77017;BME280;65949;53.132;17.930;2023-04-01T09:35:22;99493.05;;;8.35;76.66
77017;BME280;65949;53.132;17.930;2023-04-01T09:40:34;99505.06;;;8.69;76.14
77017;BME280;65949;53.132;17.930;2023-04-01T09:43:27;99505.18;;;8.87;75.99
77017;BME280;65949;53.132;17.930;2023-04-01T09:46:11;99505.33;;;8.99;75.09
77017;BME280;65949;53.132;17.930;2023-04-01T10:03:32;99529.26;;;8.73;75.94
77017;BME280;65949;53.132;17.930;2023-04-01T10:06:22;99533.88;;;8.74;75.98
77017;BME280;65949;53.132;17.930;2023-04-01T10:20:00;99543.69;;;8.76;75.66
77017;BME280;65949;53.132;17.930;2023-04-01T10:23:07;99541.21;;;8.85;75.80
77017;BME280;65949;53.132;17.930;2023-04-01T10:34:39;99550.04;;;8.86;74.46
77017;BME280;65949;53.132;17.930;2023-04-01T11:31:25;99599.86;;;8.63;74.28
77017;BME280;65949;53.132;17.930;2023-04-01T11:33:45;99605.05;;;8.56;74.52
77017;BME280;65949;53.132;17.930;2023-04-01T11:36:45;99612.08;;;8.47;74.60
77017;BME280;65949;53.132;17.930;2023-04-01T11:40:05;99618.84;;;8.42;74.78
77017;BME280;65949;53.132;17.930;2023-04-01T11:43:11;99622.70;;;8.39;74.66
77017;BME280;65949;53.132;17.930;2023-04-01T11:55:01;99633.44;;;8.39;74.25
77017;BME280;65949;53.132;17.930;2023-04-01T12:00:25;99641.29;;;8.42;74.54
77017;BME280;65949;53.132;17.930;2023-04-01T12:08:33;99646.86;;;8.60;74.24
77017;BME280;65949;53.132;17.930;2023-04-01T12:11:26;99647.84;;;8.64;74.11
77017;BME280;65949;53.132;17.930;2023-04-01T12:19:39;99657.61;;;8.60;73.40
77017;BME280;65949;53.132;17.930;2023-04-01T12:25:37;99662.52;;;8.51;72.38
77017;BME280;65949;53.132;17.930;2023-04-01T12:31:58;99674.26;;;8.43;72.62
77017;BME280;65949;53.132;17.930;2023-04-01T12:37:22;99681.93;;;8.55;72.71
77017;BME280;65949;53.132;17.930;2023-04-01T12:48:58;99686.29;;;8.62;71.11
77017;BME280;65949;53.132;17.930;2023-04-01T12:56:54;99697.08;;;8.69;70.46
77017;BME280;65949;53.132;17.930;2023-04-01T13:05:55;99704.52;;;8.92;70.46
77017;BME280;65949;53.132;17.930;2023-04-01T13:16:37;99724.80;;;9.21;70.60
77017;BME280;65949;53.132;17.930;2023-04-01T13:27:17;99737.55;;;9.01;69.45
77017;BME280;65949;53.132;17.930;2023-04-01T13:33:12;99737.80;;;8.81;70.29
77017;BME280;65949;53.132;17.930;2023-04-01T13:35:52;99740.13;;;8.85;70.80
77017;BME280;65949;53.132;17.930;2023-04-01T13:38:52;99741.73;;;8.90;70.40
77017;BME280;65949;53.132;17.930;2023-04-01T13:41:55;99744.50;;;8.85;69.99
77017;BME280;65949;53.132;17.930;2023-04-01T13:44:38;99750.63;;;8.85;70.17
77017;BME280;65949;53.132;17.930;2023-04-01T13:47:29;99749.80;;;8.81;69.66
77017;BME280;65949;53.132;17.930;2023-04-01T14:04:13;99777.76;;;8.47;70.10
77017;BME280;65949;53.132;17.930;2023-04-01T14:15:22;99789.05;;;8.22;70.14
77017;BME280;65949;53.132;17.930;2023-04-01T14:17:40;99794.55;;;8.12;70.41
77017;BME280;65949;53.132;17.930;2023-04-01T14:20:51;99793.19;;;8.05;70.67
77017;BME280;65949;53.132;17.930;2023-04-01T14:29:28;99797.67;;;7.76;70.77
77017;BME280;65949;53.132;17.930;2023-04-01T14:32:12;99803.11;;;7.74;70.86
77017;BME280;65949;53.132;17.930;2023-04-01T14:40:21;99816.38;;;7.73;71.23
77017;BME280;65949;53.132;17.930;2023-04-01T14:43:16;99819.06;;;7.69;70.87
77017;BME280;65949;53.132;17.930;2023-04-01T14:46:04;99824.34;;;7.66;71.12
77017;BME280;65949;53.132;17.930;2023-04-01T14:48:38;99826.85;;;7.61;70.93
77017;BME280;65949;53.132;17.930;2023-04-01T14:51:35;99830.66;;;7.53;71.04
77017;BME280;65949;53.132;17.930;2023-04-01T14:54:32;99831.32;;;7.44;70.84
77017;BME280;65949;53.132;17.930;2023-04-01T14:57:14;99835.40;;;7.41;71.44
77017;BME280;65949;53.132;17.930;2023-04-01T14:59:48;99841.25;;;7.37;71.42
77017;BME280;65949;53.132;17.930;2023-04-01T15:05:42;99855.30;;;7.28;71.50
77017;BME280;65949;53.132;17.930;2023-04-01T15:08:26;99857.19;;;7.18;71.06
77017;BME280;65949;53.132;17.930;2023-04-01T15:16:34;99867.95;;;6.89;71.19
77017;BME280;65949;53.132;17.930;2023-04-01T15:19:20;99875.56;;;6.82;71.84
77017;BME280;65949;53.132;17.930;2023-04-01T15:28:08;99890.05;;;6.74;71.88
77017;BME280;65949;53.132;17.930;2023-04-01T15:33:45;99898.10;;;6.78;72.20
77017;BME280;65949;53.132;17.930;2023-04-01T15:44:52;99911.88;;;6.66;72.28
77017;BME280;65949;53.132;17.930;2023-04-01T15:55:24;99925.53;;;6.28;72.79
77017;BME280;65949;53.132;17.930;2023-04-01T16:01:09;99936.09;;;6.22;72.98
77017;BME280;65949;53.132;17.930;2023-04-01T16:03:51;99941.17;;;6.23;73.27
77017;BME280;65949;53.132;17.930;2023-04-01T16:14:23;99958.56;;;6.16;73.03
77017;BME280;65949;53.132;17.930;2023-04-01T16:20:01;99964.16;;;6.04;72.94
77017;BME280;65949;53.132;17.930;2023-04-01T16:22:35;99974.22;;;5.98;73.09
77017;BME280;65949;53.132;17.930;2023-04-01T16:37:05;99996.73;;;5.86;73.20
77017;BME280;65949;53.132;17.930;2023-04-01T16:45:15;100009.29;;;5.73;73.79
77017;BME280;65949;53.132;17.930;2023-04-01T16:47:54;100019.37;;;5.70;73.82
77017;BME280;65949;53.132;17.930;2023-04-01T16:50:47;100027.35;;;5.67;74.04
77017;BME280;65949;53.132;17.930;2023-04-01T16:55:49;100034.18;;;5.55;74.68
77017;BME280;65949;53.132;17.930;2023-04-01T16:58:25;100036.27;;;5.50;74.11
77017;BME280;65949;53.132;17.930;2023-04-01T17:01:03;100039.52;;;5.47;74.53
77017;BME280;65949;53.132;17.930;2023-04-01T17:03:40;100043.59;;;5.43;74.64
77017;BME280;65949;53.132;17.930;2023-04-01T17:17:38;100064.23;;;5.26;74.67
77017;BME280;65949;53.132;17.930;2023-04-01T17:25:48;100075.35;;;5.24;74.71
77017;BME280;65949;53.132;17.930;2023-04-01T17:28:49;100074.23;;;5.25;74.42
77017;BME280;65949;53.132;17.930;2023-04-01T17:31:45;100081.11;;;5.19;74.38
77017;BME280;65949;53.132;17.930;2023-04-01T17:37:52;100088.77;;;5.15;74.32
77017;BME280;65949;53.132;17.930;2023-04-01T17:43:32;100100.94;;;4.98;74.48
77017;BME280;65949;53.132;17.930;2023-04-01T17:46:10;100102.33;;;4.92;74.72
77017;BME280;65949;53.132;17.930;2023-04-01T17:51:36;100122.55;;;4.89;74.67
77017;BME280;65949;53.132;17.930;2023-04-01T17:57:21;100131.19;;;4.78;75.35
77017;BME280;65949;53.132;17.930;2023-04-01T18:02:57;100141.92;;;4.60;76.08
77017;BME280;65949;53.132;17.930;2023-04-01T18:05:56;100146.77;;;4.53;76.38
77017;BME280;65949;53.132;17.930;2023-04-01T18:19:37;100170.61;;;4.42;76.58
77017;BME280;65949;53.132;17.930;2023-04-01T18:21:46;100176.83;;;4.38;76.99
77017;BME280;65949;53.132;17.930;2023-04-01T18:24:45;100180.13;;;4.36;76.96
77017;BME280;65949;53.132;17.930;2023-04-01T18:27:36;100183.84;;;4.34;77.34
77017;BME280;65949;53.132;17.930;2023-04-01T18:30:14;100186.78;;;4.29;77.50
77017;BME280;65949;53.132;17.930;2023-04-01T18:35:54;100192.89;;;4.19;78.55
77017;BME280;65949;53.132;17.930;2023-04-01T18:38:32;100199.52;;;4.16;78.58
77017;BME280;65949;53.132;17.930;2023-04-01T18:41:18;100200.60;;;4.15;78.87
77017;BME280;65949;53.132;17.930;2023-04-01T18:47:00;100212.16;;;4.12;79.12
77017;BME280;65949;53.132;17.930;2023-04-01T18:49:40;100211.05;;;4.05;78.81
77017;BME280;65949;53.132;17.930;2023-04-01T18:52:17;100220.79;;;3.97;79.29
77017;BME280;65949;53.132;17.930;2023-04-01T18:57:47;100228.95;;;3.88;80.34
77017;BME280;65949;53.132;17.930;2023-04-01T19:00:32;100230.33;;;3.85;79.93
77017;BME280;65949;53.132;17.930;2023-04-01T19:03:07;100233.03;;;3.82;80.50
77017;BME280;65949;53.132;17.930;2023-04-01T19:05:40;100237.83;;;3.80;81.06
77017;BME280;65949;53.132;17.930;2023-04-01T19:08:25;100240.92;;;3.80;80.42
77017;BME280;65949;53.132;17.930;2023-04-01T19:11:02;100243.95;;;3.82;80.28
77017;BME280;65949;53.132;17.930;2023-04-01T19:17:09;100250.07;;;3.90;80.63
77017;BME280;65949;53.132;17.930;2023-04-01T19:25:37;100266.86;;;3.80;80.71
77017;BME280;65949;53.132;17.930;2023-04-01T19:31:03;100276.85;;;3.80;80.59
77017;BME280;65949;53.132;17.930;2023-04-01T19:33:42;100282.45;;;3.74;80.51
77017;BME280;65949;53.132;17.930;2023-04-01T19:36:27;100286.56;;;3.69;80.57
77017;BME280;65949;53.132;17.930;2023-04-01T19:39:13;100288.23;;;3.66;80.97
77017;BME280;65949;53.132;17.930;2023-04-01T19:44:46;100291.98;;;3.64;81.42
77017;BME280;65949;53.132;17.930;2023-04-01T19:47:39;100301.77;;;3.64;81.08
77017;BME280;65949;53.132;17.930;2023-04-01T19:50:27;100300.82;;;3.63;81.48
77017;BME280;65949;53.132;17.930;2023-04-01T19:53:11;100303.65;;;3.59;81.30
77017;BME280;65949;53.132;17.930;2023-04-01T19:55:55;100308.41;;;3.58;81.19
77017;BME280;65949;53.132;17.930;2023-04-01T19:58:36;100306.85;;;3.54;81.12
77017;BME280;65949;53.132;17.930;2023-04-01T20:01:14;100311.97;;;3.51;81.20
77017;BME280;65949;53.132;17.930;2023-04-01T20:03:59;100315.54;;;3.48;81.36
77017;BME280;65949;53.132;17.930;2023-04-01T20:14:58;100332.02;;;3.49;81.37
77017;BME280;65949;53.132;17.930;2023-04-01T20:17:52;100337.30;;;3.47;81.38
77017;BME280;65949;53.132;17.930;2023-04-01T20:20:23;100340.89;;;3.45;81.28
77017;BME280;65949;53.132;17.930;2023-04-01T20:28:00;100349.91;;;3.43;81.44
77017;BME280;65949;53.132;17.930;2023-04-01T20:36:31;100359.57;;;3.44;80.90
77017;BME280;65949;53.132;17.930;2023-04-01T20:44:34;100359.90;;;3.41;80.66
77017;BME280;65949;53.132;17.930;2023-04-01T20:53:25;100369.83;;;3.44;80.89
77017;BME280;65949;53.132;17.930;2023-04-01T20:56:09;100372.48;;;3.44;80.66
77017;BME280;65949;53.132;17.930;2023-04-01T20:59:14;100374.41;;;3.42;80.69
77017;BME280;65949;53.132;17.930;2023-04-01T21:16:47;100388.98;;;3.39;79.98
77017;BME280;65949;53.132;17.930;2023-04-01T21:19:51;100394.53;;;3.38;79.91
77017;BME280;65949;53.132;17.930;2023-04-01T21:22:44;100399.56;;;3.39;79.55
77017;BME280;65949;53.132;17.930;2023-04-01T21:36:40;100412.17;;;3.46;79.92
77017;BME280;65949;53.132;17.930;2023-04-01T21:42:15;100418.63;;;3.48;79.08
77017;BME280;65949;53.132;17.930;2023-04-01T21:45:13;100416.39;;;3.44;78.73
77017;BME280;65949;53.132;17.930;2023-04-01T21:47:55;100416.58;;;3.42;79.16
77017;BME280;65949;53.132;17.930;2023-04-01T21:50:55;100421.44;;;3.43;79.44
77017;BME280;65949;53.132;17.930;2023-04-01T21:56:28;100423.84;;;3.45;79.38
77017;BME280;65949;53.132;17.930;2023-04-01T21:59:05;100426.85;;;3.45;79.07
77017;BME280;65949;53.132;17.930;2023-04-01T22:04:39;100431.34;;;3.43;78.88
77017;BME280;65949;53.132;17.930;2023-04-01T22:12:22;100431.56;;;3.36;79.20
77017;BME280;65949;53.132;17.930;2023-04-01T22:14:57;100438.77;;;3.36;79.19
77017;BME280;65949;53.132;17.930;2023-04-01T22:17:28;100433.16;;;3.35;79.31
77017;BME280;65949;53.132;17.930;2023-04-01T22:20:27;100437.59;;;3.30;78.96
77017;BME280;65949;53.132;17.930;2023-04-01T22:25:56;100446.46;;;3.22;79.41
77017;BME280;65949;53.132;17.930;2023-04-01T22:28:34;100446.60;;;3.24;79.54
77017;BME280;65949;53.132;17.930;2023-04-01T22:31:05;100449.42;;;3.23;79.43
77017;BME280;65949;53.132;17.930;2023-04-01T22:33:57;100458.27;;;3.22;79.36
77017;BME280;65949;53.132;17.930;2023-04-01T22:36:48;100461.02;;;3.26;79.36
77017;BME280;65949;53.132;17.930;2023-04-01T22:39:28;100462.11;;;3.30;79.43